Time;durP1;ratioP1;P1;durP2;ratioP2;P2;SDS_P1;SDS_P2;PMS_P1;PMS_P2;Temp;Humidity;BMP_temperature;BMP_pressure;BME280_temperature;BME280_humidity;BME280_pressure;Samples;Min_cycle;Max_cycle;Signal;HPM_P1;HPM_P2
2021/11/15 00:00:51;;;;;;;0.10;0.10;;;;;;;8.16;68.30;99121.91;103539;1357;138120;-83
2021/11/15 00:03:18;;;;;;;0.00;0.00;;;;;;;8.13;68.42;99128.09;103899;1357;22654;-83
2021/11/15 00:05:44;;;;;;;0.10;0.10;;;;;;;8.10;68.18;99132.77;103602;1357;138017;-84
2021/11/15 00:08:09;;;;;;;0.00;0.00;;;;;;;8.07;67.91;99131.13;103717;1355;137416;-84
2021/11/15 00:10:35;;;;;;;0.10;0.10;;;;;;;8.04;68.17;99132.96;102694;1357;137676;-82
2021/11/15 00:13:01;;;;;;;0.00;0.00;;;;;;;8.02;68.21;99136.46;103642;1357;137830;-83
2021/11/15 00:15:29;;;;;;;0.10;0.10;;;;;;;8.02;68.15;99142.14;103744;1357;22347;-83
2021/11/15 00:17:55;;;;;;;0.00;0.00;;;;;;;8.04;68.58;99140.09;103568;1357;138269;-83
2021/11/15 00:20:20;;;;;;;0.10;0.10;;;;;;;8.08;68.69;99141.58;103655;1357;138393;-83
2021/11/15 00:22:46;;;;;;;0.00;0.00;;;;;;;8.13;68.70;99146.08;103662;1357;138349;-83
2021/11/15 00:25:12;;;;;;;0.20;0.20;;;;;;;8.17;68.51;99149.16;103562;1357;137674;-84
2021/11/15 00:27:38;;;;;;;0.10;0.10;;;;;;;8.21;68.27;99151.73;103636;1357;22438;-83
2021/11/15 00:30:05;;;;;;;0.10;0.10;;;;;;;8.23;68.17;99148.98;103437;1357;138071;-83
2021/11/15 00:32:31;;;;;;;0.10;0.10;;;;;;;8.24;68.19;99148.16;103532;1357;137588;-84
2021/11/15 00:34:56;;;;;;;0.10;0.10;;;;;;;8.24;68.07;99151.12;103651;1357;137501;-83
2021/11/15 00:37:22;;;;;;;0.00;0.00;;;;;;;8.24;68.26;99149.02;103201;1360;138090;-83
2021/11/15 00:39:49;;;;;;;0.10;0.10;;;;;;;8.21;67.96;99153.92;103787;1357;137792;-84
2021/11/15 00:42:14;;;;;;;0.10;0.10;;;;;;;8.17;67.83;99146.27;103673;1357;137457;-82
2021/11/15 00:44:40;;;;;;;0.10;0.10;;;;;;;8.14;67.82;99148.70;103504;1357;137866;-82
2021/11/15 00:47:06;;;;;;;0.00;0.00;;;;;;;8.12;68.19;99152.18;103803;1357;137706;-82
2021/11/15 00:49:33;;;;;;;0.10;0.10;;;;;;;8.10;67.64;99152.84;103548;1357;138137;-82
2021/11/15 00:51:58;;;;;;;0.10;0.10;;;;;;;8.06;67.88;99154.89;103528;1357;138132;-82
2021/11/15 00:54:24;;;;;;;0.10;0.10;;;;;;;8.04;68.28;99154.47;103770;1357;137139;-82
2021/11/15 00:56:49;;;;;;;0.10;0.10;;;;;;;8.00;67.99;99157.91;103629;1357;137956;-82
2021/11/15 00:59:15;;;;;;;0.00;0.00;;;;;;;7.93;68.19;99160.13;103773;1357;138362;-83
2021/11/15 01:01:40;;;;;;;0.00;0.00;;;;;;;7.93;68.08;99158.79;103555;1357;138433;-83
2021/11/15 01:04:06;;;;;;;0.10;0.10;;;;;;;7.97;68.90;99161.41;103533;1357;138469;-83
2021/11/15 01:06:32;;;;;;;0.00;0.00;;;;;;;8.02;69.07;99159.08;103669;1357;138521;-83
2021/11/15 01:08:57;;;;;;;0.10;0.10;;;;;;;8.07;69.05;99161.10;103646;1357;137685;-83
2021/11/15 01:11:23;;;;;;;0.10;0.10;;;;;;;8.13;68.89;99156.91;103631;1357;137448;-83
2021/11/15 01:13:48;;;;;;;0.10;0.10;;;;;;;8.17;69.07;99158.50;103675;1356;138429;-83
2021/11/15 01:16:14;;;;;;;0.10;0.10;;;;;;;8.21;68.66;99162.08;103713;1356;138206;-84
2021/11/15 01:18:43;;;;;;;0.10;0.10;;;;;;;8.24;68.72;99160.08;103634;1357;137953;-83
2021/11/15 01:21:10;;;;;;;0.00;0.00;;;;;;;8.23;68.55;99158.38;103675;1357;137232;-83
2021/11/15 01:23:36;;;;;;;0.10;0.10;;;;;;;8.22;68.51;99160.20;103432;1357;137574;-83
2021/11/15 01:26:04;;;;;;;0.10;0.10;;;;;;;8.21;68.73;99157.99;103512;1357;137749;-83
2021/11/15 01:28:29;;;;;;;0.10;0.10;;;;;;;8.20;68.50;99159.71;103538;1357;138142;-83
2021/11/15 01:30:55;;;;;;;0.10;0.10;;;;;;;8.20;68.56;99162.19;103550;1357;137623;-83
2021/11/15 01:33:20;;;;;;;0.00;0.00;;;;;;;8.18;68.37;99160.48;103800;1357;22421;-83
2021/11/15 01:35:46;;;;;;;0.10;0.10;;;;;;;8.16;68.39;99158.98;103604;1354;138283;-83
2021/11/15 01:38:12;;;;;;;0.10;0.10;;;;;;;8.16;68.13;99155.45;103779;1357;138017;-83
2021/11/15 01:40:38;;;;;;;0.10;0.10;;;;;;;8.14;68.25;99157.72;103634;1357;137372;-82
2021/11/15 01:43:04;;;;;;;0.10;0.10;;;;;;;8.13;68.32;99157.61;103537;1357;137385;-82
2021/11/15 01:45:33;;;;;;;0.00;0.00;;;;;;;8.14;68.11;99155.20;103824;1357;22420;-83
2021/11/15 01:48:01;;;;;;;0.00;0.00;;;;;;;8.18;68.06;99153.35;103681;1357;138128;-82
2021/11/15 01:50:28;;;;;;;0.00;0.00;;;;;;;8.23;68.45;99152.09;103730;1357;138331;-83
2021/11/15 01:52:55;;;;;;;0.10;0.10;;;;;;;8.29;68.66;99147.23;103701;1357;138237;-83
2021/11/15 01:55:22;;;;;;;0.10;0.10;;;;;;;8.34;68.73;99142.98;103616;1355;137839;-83
2021/11/15 01:57:49;;;;;;;0.10;0.10;;;;;;;8.39;69.02;99144.39;103773;1357;138729;-83
2021/11/15 02:00:21;;;;;;;0.10;0.10;;;;;;;8.43;69.05;99140.77;103708;1358;137541;-83
2021/11/15 02:02:47;;;;;;;0.00;0.00;;;;;;;8.48;69.03;99138.05;103602;1358;137621;-83
2021/11/15 02:05:13;;;;;;;0.10;0.10;;;;;;;8.49;69.26;99131.99;103624;1357;137483;-83
2021/11/15 02:07:38;;;;;;;0.00;0.00;;;;;;;8.52;69.36;99131.38;103223;1360;137556;-83
2021/11/15 02:10:07;;;;;;;0.00;0.00;;;;;;;8.51;69.70;99129.94;103533;1357;138418;-84
2021/11/15 02:12:33;;;;;;;0.10;0.10;;;;;;;8.50;69.38;99128.67;102873;1357;138138;-84
2021/11/15 02:14:59;;;;;;;0.10;0.10;;;;;;;8.49;69.45;99130.11;103614;1358;138154;-84
2021/11/15 02:17:24;;;;;;;0.10;0.10;;;;;;;8.48;69.11;99130.64;103496;1357;137643;-83
2021/11/15 02:19:51;;;;;;;0.10;0.10;;;;;;;8.47;69.32;99124.05;103269;1360;137758;-83
2021/11/15 02:22:16;;;;;;;0.10;0.10;;;;;;;8.46;69.34;99125.09;102884;1357;137820;-82
2021/11/15 02:24:44;;;;;;;0.10;0.10;;;;;;;8.46;69.32;99126.00;103632;1357;138869;-83
2021/11/15 02:27:09;;;;;;;0.10;0.10;;;;;;;8.46;69.18;99122.40;103519;1357;138486;-82
2021/11/15 02:29:38;;;;;;;0.10;0.10;;;;;;;8.50;69.30;99123.18;103311;1357;293011;-82
2021/11/15 02:32:04;;;;;;;0.10;0.10;;;;;;;8.54;69.42;99121.96;103618;1358;137602;-82
2021/11/15 02:34:30;;;;;;;0.10;0.10;;;;;;;8.57;69.63;99121.52;103777;1357;137875;-82
2021/11/15 02:36:55;;;;;;;0.10;0.10;;;;;;;8.60;69.47;99117.86;103542;1357;138473;-83
2021/11/15 02:39:21;;;;;;;0.10;0.10;;;;;;;8.62;69.26;99122.96;103819;1358;22327;-83
2021/11/15 02:41:46;;;;;;;0.10;0.10;;;;;;;8.63;69.29;99122.52;103606;1358;137866;-82
2021/11/15 02:44:12;;;;;;;0.10;0.10;;;;;;;8.64;69.53;99124.06;103636;1357;138352;-83
2021/11/15 02:46:37;;;;;;;0.10;0.10;;;;;;;8.64;69.35;99125.30;103794;1357;137429;-83
2021/11/15 02:49:04;;;;;;;0.10;0.10;;;;;;;8.64;69.46;99128.46;103672;1357;137459;-83
2021/11/15 02:51:30;;;;;;;0.10;0.10;;;;;;;8.62;69.80;99129.13;102588;1363;22572;-83
2021/11/15 02:53:56;;;;;;;0.10;0.10;;;;;;;8.62;69.96;99125.70;103594;1357;138092;-82
2021/11/15 02:56:21;;;;;;;0.00;0.00;;;;;;;8.59;69.78;99127.09;102899;1360;137486;-82
2021/11/15 02:58:47;;;;;;;0.00;0.00;;;;;;;8.57;69.75;99123.73;103719;1358;137413;-82
2021/11/15 03:01:17;;;;;;;0.10;0.10;;;;;;;8.58;69.64;99126.03;103562;1357;138598;-82
2021/11/15 03:03:43;;;;;;;0.10;0.10;;;;;;;8.62;69.95;99124.98;103715;1357;22457;-82
2021/11/15 03:06:09;;;;;;;0.00;0.00;;;;;;;8.67;70.05;99123.98;103442;1360;138138;-83
2021/11/15 03:08:36;;;;;;;0.10;0.10;;;;;;;8.73;70.52;99126.59;103541;1357;137831;-84
2021/11/15 03:11:05;;;;;;;0.10;0.10;;;;;;;8.79;70.37;99131.29;103526;1357;138031;-84
2021/11/15 03:13:34;;;;;;;0.10;0.10;;;;;;;8.84;70.38;99133.50;103422;1358;138021;-84
2021/11/15 03:16:01;;;;;;;0.00;0.00;;;;;;;8.89;69.98;99144.91;103719;1358;137682;-85
2021/11/15 03:18:33;;;;;;;0.00;0.00;;;;;;;8.92;69.94;99141.45;103657;1357;137499;-84
2021/11/15 03:21:06;;;;;;;0.10;0.10;;;;;;;8.93;70.22;99142.52;103528;1357;137514;-83
2021/11/15 03:23:37;;;;;;;0.10;0.10;;;;;;;8.92;69.99;99145.38;103011;1358;137672;-83
2021/11/15 03:26:03;;;;;;;0.10;0.10;;;;;;;8.90;70.10;99144.52;103519;1357;137460;-83
2021/11/15 03:28:37;;;;;;;0.10;0.10;;;;;;;8.87;69.99;99147.55;103609;1358;137654;-83
2021/11/15 03:31:10;;;;;;;0.10;0.10;;;;;;;8.84;69.97;99147.58;103436;1357;138673;-83
2021/11/15 03:33:37;;;;;;;0.10;0.10;;;;;;;8.79;70.11;99149.59;103889;1357;22383;-83
2021/11/15 03:36:05;;;;;;;0.10;0.10;;;;;;;8.77;70.02;99148.21;103675;1357;138321;-83
2021/11/15 03:38:31;;;;;;;0.10;0.10;;;;;;;8.75;70.29;99150.20;103400;1358;137852;-83
2021/11/15 03:40:57;;;;;;;0.10;0.10;;;;;;;8.77;70.39;99152.34;103710;1358;138431;-83
2021/11/15 03:43:23;;;;;;;0.10;0.10;;;;;;;8.81;70.76;99151.89;103613;1358;138700;-83
2021/11/15 03:45:49;;;;;;;0.10;0.10;;;;;;;8.84;70.56;99153.52;103721;1358;137971;-83
2021/11/15 03:48:15;;;;;;;0.10;0.10;;;;;;;8.88;70.62;99152.48;103780;1357;138133;-84
2021/11/15 03:50:42;;;;;;;0.10;0.10;;;;;;;8.90;70.51;99146.08;103630;1358;137702;-83
2021/11/15 03:53:11;;;;;;;0.10;0.10;;;;;;;8.92;70.35;99142.63;103653;1357;137259;-83
2021/11/15 03:55:36;;;;;;;0.10;0.10;;;;;;;8.92;70.29;99140.00;103616;1357;138000;-83
2021/11/15 03:58:02;;;;;;;0.10;0.10;;;;;;;8.92;70.49;99144.52;103474;1358;138161;-83
2021/11/15 04:00:31;;;;;;;0.10;0.10;;;;;;;8.91;70.37;99144.46;103508;1358;137412;-83
2021/11/15 04:03:03;;;;;;;0.10;0.10;;;;;;;8.90;70.52;99147.64;103647;1358;137803;-82
2021/11/15 04:05:33;;;;;;;0.00;0.00;;;;;;;8.87;70.28;99148.46;103615;1357;138288;-82
2021/11/15 04:08:04;;;;;;;0.10;0.10;;;;;;;8.84;70.75;99149.39;103566;1358;137888;-83
2021/11/15 04:10:35;;;;;;;0.10;0.10;;;;;;;8.82;70.40;99150.27;103727;1357;137618;-83
2021/11/15 04:13:09;;;;;;;0.10;0.10;;;;;;;8.78;70.34;99147.94;103471;1358;137860;-83
2021/11/15 04:15:35;;;;;;;0.00;0.00;;;;;;;8.77;70.53;99148.90;103826;1358;22315;-83
2021/11/15 04:18:03;;;;;;;0.10;0.10;;;;;;;8.79;70.71;99147.07;103377;1358;138274;-84
2021/11/15 04:20:31;;;;;;;0.10;0.10;;;;;;;8.82;70.91;99147.09;103577;1358;138448;-84
2021/11/15 04:22:56;;;;;;;0.20;0.20;;;;;;;8.87;70.82;99149.64;103515;1357;138008;-84
2021/11/15 04:25:22;;;;;;;0.10;0.10;;;;;;;8.91;70.82;99153.05;103442;1358;138188;-84
2021/11/15 04:27:47;;;;;;;0.10;0.10;;;;;;;8.95;70.64;99157.21;103726;1358;137722;-84
2021/11/15 04:30:13;;;;;;;0.10;0.10;;;;;;;8.96;70.78;99156.03;103478;1358;137460;-84
2021/11/15 04:32:43;;;;;;;0.00;0.00;;;;;;;8.98;70.53;99152.37;103497;1358;137435;-84
2021/11/15 04:35:12;;;;;;;0.10;0.10;;;;;;;8.98;70.60;99145.00;103529;1359;137337;-84
2021/11/15 04:37:39;;;;;;;0.10;0.10;;;;;;;8.97;70.55;99148.02;103540;1358;138081;-85
2021/11/15 04:40:06;;;;;;;0.10;0.10;;;;;;;8.96;70.62;99149.59;103492;1358;137786;-84
2021/11/15 04:42:33;;;;;;;0.10;0.10;;;;;;;8.94;70.82;99151.54;103471;1358;137672;-84
2021/11/15 04:44:58;;;;;;;0.10;0.10;;;;;;;8.92;70.71;99148.33;103418;1358;137401;-84
2021/11/15 04:47:24;;;;;;;0.10;0.10;;;;;;;8.89;70.79;99149.80;103525;1359;137630;-84
2021/11/15 04:49:50;;;;;;;0.10;0.10;;;;;;;8.85;70.97;99155.89;103398;1358;137499;-84
2021/11/15 04:52:15;;;;;;;0.10;0.10;;;;;;;8.84;70.88;99156.48;103645;1358;138190;-83
2021/11/15 04:54:41;;;;;;;0.10;0.10;;;;;;;8.85;70.69;99155.63;103726;1358;138396;-83
2021/11/15 04:57:06;;;;;;;0.10;0.10;;;;;;;8.88;70.97;99154.52;103717;1358;138894;-83
2021/11/15 04:59:32;;;;;;;0.10;0.10;;;;;;;8.91;71.30;99160.52;103130;1358;138020;-83
2021/11/15 05:01:57;;;;;;;0.10;0.10;;;;;;;8.95;70.98;99162.10;103719;1358;137538;-84
2021/11/15 05:04:23;;;;;;;0.00;0.00;;;;;;;8.98;71.08;99166.44;103489;1358;137940;-83
2021/11/15 05:06:48;;;;;;;0.10;0.10;;;;;;;9.00;70.80;99163.66;103391;1357;137491;-83
2021/11/15 05:09:14;;;;;;;0.00;0.00;;;;;;;9.01;70.81;99165.23;103863;1357;23109;-83
2021/11/15 05:11:40;;;;;;;0.10;0.10;;;;;;;9.01;70.90;99168.95;103438;1358;137532;-84
2021/11/15 05:14:05;;;;;;;0.00;0.00;;;;;;;9.00;70.60;99172.92;103733;1358;137312;-85
2021/11/15 05:16:33;;;;;;;0.10;0.10;;;;;;;8.98;70.78;99172.57;103742;1355;137732;-86
2021/11/15 05:18:59;;;;;;;0.10;0.10;;;;;;;8.96;70.73;99173.39;103402;1358;137483;-87
2021/11/15 05:21:26;;;;;;;0.10;0.10;;;;;;;8.93;70.90;99173.04;103635;1358;22449;-84
2021/11/15 05:23:53;;;;;;;0.10;0.10;;;;;;;8.89;70.86;99175.63;103531;1358;137359;-84
2021/11/15 05:26:23;;;;;;;0.10;0.10;;;;;;;8.85;70.90;99176.35;103666;1358;137442;-87
2021/11/15 05:28:49;;;;;;;0.10;0.10;;;;;;;8.84;70.91;99172.59;103655;1358;137669;-84
2021/11/15 05:31:15;;;;;;;0.10;0.10;;;;;;;8.85;71.09;99175.77;103358;1358;138522;-84
2021/11/15 05:33:41;;;;;;;0.10;0.10;;;;;;;8.88;71.02;99176.06;103729;1359;23058;-83
2021/11/15 05:36:07;;;;;;;0.10;0.10;;;;;;;8.92;71.21;99177.88;103533;1358;138019;-83
2021/11/15 05:38:33;;;;;;;0.10;0.10;;;;;;;8.94;71.45;99180.59;103720;1358;137230;-83
2021/11/15 05:40:59;;;;;;;0.10;0.10;;;;;;;8.96;71.05;99179.83;103623;1358;137913;-83
2021/11/15 05:43:25;;;;;;;0.10;0.10;;;;;;;8.96;71.23;99179.67;103425;1358;138319;-83
2021/11/15 05:45:52;;;;;;;0.10;0.10;;;;;;;8.95;70.99;99183.48;103685;1357;137998;-83
2021/11/15 05:48:17;;;;;;;0.20;0.20;;;;;;;8.94;71.14;99182.52;103697;1357;137874;-82
2021/11/15 05:50:43;;;;;;;0.10;0.10;;;;;;;8.93;71.08;99182.17;102924;1358;138115;-83
2021/11/15 05:53:09;;;;;;;0.10;0.10;;;;;;;8.90;70.99;99184.05;103799;1357;137870;-82
2021/11/15 05:55:35;;;;;;;0.10;0.10;;;;;;;8.86;70.88;99187.63;103554;1357;137624;-83
2021/11/15 05:58:01;;;;;;;0.10;0.10;;;;;;;8.83;70.89;99190.17;103627;1358;137986;-83
2021/11/15 06:00:29;;;;;;;0.10;0.10;;;;;;;8.79;71.09;99190.88;103538;1357;137621;-83
2021/11/15 06:02:56;;;;;;;0.00;0.00;;;;;;;8.76;70.97;99196.37;103652;1358;137536;-83
2021/11/15 06:05:23;;;;;;;0.10;0.10;;;;;;;8.75;70.87;99203.84;103617;1357;138450;-83
2021/11/15 06:07:49;;;;;;;0.10;0.10;;;;;;;8.76;71.15;99207.12;103510;1357;138358;-83
2021/11/15 06:10:15;;;;;;;0.00;0.00;;;;;;;8.80;71.45;99211.65;103783;1357;138481;-83
2021/11/15 06:12:41;;;;;;;0.10;0.10;;;;;;;8.83;71.71;99215.29;103643;1357;137859;-83
2021/11/15 06:15:08;;;;;;;0.20;0.20;;;;;;;8.87;71.15;99213.35;103611;1357;137809;-83
2021/11/15 06:17:34;;;;;;;0.10;0.10;;;;;;;8.89;71.30;99222.04;103678;1357;138517;-83
2021/11/15 06:20:00;;;;;;;0.10;0.10;;;;;;;8.91;71.30;99224.48;103622;1358;137759;-82
2021/11/15 06:22:26;;;;;;;0.10;0.10;;;;;;;8.92;71.14;99233.10;103637;1357;138003;-84
2021/11/15 06:24:52;;;;;;;0.10;0.10;;;;;;;8.93;71.18;99235.67;103529;1357;137740;-84
2021/11/15 06:27:18;;;;;;;0.00;0.00;;;;;;;8.92;70.78;99242.80;103754;1357;22514;-83
2021/11/15 06:29:45;;;;;;;0.10;0.10;;;;;;;8.91;70.98;99242.44;103387;1357;137475;-82
2021/11/15 06:32:12;;;;;;;0.10;0.10;;;;;;;8.90;71.20;99243.20;103506;1357;137659;-82
2021/11/15 06:34:37;;;;;;;0.10;0.10;;;;;;;8.88;70.87;99245.98;103689;1342;137602;-82
2021/11/15 06:37:03;;;;;;;0.10;0.10;;;;;;;8.87;71.00;99248.14;103654;1357;138816;-83
2021/11/15 06:39:30;;;;;;;0.10;0.10;;;;;;;8.89;71.08;99245.67;103824;1357;22475;-83
2021/11/15 06:41:57;;;;;;;0.10;0.10;;;;;;;8.94;71.31;99252.09;103589;1357;139126;-85
2021/11/15 06:44:24;;;;;;;0.10;0.10;;;;;;;9.01;71.31;99258.12;103565;1357;140108;-83
2021/11/15 06:46:50;;;;;;;0.10;0.10;;;;;;;9.10;71.37;99259.95;103667;1357;138729;-82
2021/11/15 06:49:16;;;;;;;0.20;0.20;;;;;;;9.18;71.28;99262.59;103375;1357;138176;-82
2021/11/15 06:51:42;;;;;;;0.20;0.20;;;;;;;9.26;71.33;99264.70;103663;1357;22531;-82
2021/11/15 06:54:08;;;;;;;0.10;0.10;;;;;;;9.34;71.36;99270.51;103468;1355;138511;-81
2021/11/15 06:56:34;;;;;;;0.10;0.10;;;;;;;9.40;70.97;99271.80;103518;1357;138046;-82
2021/11/15 06:58:59;;;;;;;0.20;0.20;;;;;;;9.47;70.73;99273.05;103638;1357;137499;-82
2021/11/15 07:01:25;;;;;;;0.10;0.10;;;;;;;9.53;70.61;99276.45;103613;1357;138331;-81
2021/11/15 07:03:50;;;;;;;0.10;0.10;;;;;;;9.57;70.29;99275.02;103585;1357;137788;-82
2021/11/15 07:06:16;;;;;;;0.10;0.10;;;;;;;9.62;70.56;99277.56;103783;1357;137746;-82
2021/11/15 07:08:41;;;;;;;0.10;0.10;;;;;;;9.66;70.44;99278.94;103628;1357;138402;-82
2021/11/15 07:11:07;;;;;;;0.20;0.20;;;;;;;9.69;70.06;99278.75;103641;1358;137730;-83
2021/11/15 07:13:33;;;;;;;0.10;0.10;;;;;;;9.72;70.17;99277.02;103546;1357;138221;-82
2021/11/15 07:15:58;;;;;;;0.20;0.20;;;;;;;9.75;70.17;99276.93;103767;1357;138130;-83
2021/11/15 07:18:26;;;;;;;0.10;0.10;;;;;;;9.79;70.06;99281.52;103509;1357;138603;-83
2021/11/15 07:20:52;;;;;;;0.10;0.10;;;;;;;9.85;70.00;99280.61;103542;1357;138605;-83
2021/11/15 07:23:18;;;;;;;0.10;0.10;;;;;;;9.91;69.85;99283.97;103637;1357;137497;-82
2021/11/15 07:25:43;;;;;;;0.10;0.10;;;;;;;9.97;69.77;99282.62;103538;1358;137612;-83
2021/11/15 07:28:09;;;;;;;0.10;0.10;;;;;;;10.03;69.83;99286.48;103545;1357;138126;-83
2021/11/15 07:30:35;;;;;;;0.20;0.20;;;;;;;10.09;69.65;99289.19;103642;1357;137769;-83
2021/11/15 07:33:01;;;;;;;0.10;0.10;;;;;;;10.16;69.32;99291.95;103728;1358;137769;-83
2021/11/15 07:35:26;;;;;;;0.10;0.10;;;;;;;10.22;69.13;99291.16;103723;1357;137957;-83
2021/11/15 07:37:52;;;;;;;0.10;0.10;;;;;;;10.28;69.10;99288.85;103613;1357;138106;-83
2021/11/15 07:40:18;;;;;;;0.10;0.10;;;;;;;10.34;68.95;99291.98;103497;1357;138733;-83
2021/11/15 07:42:45;;;;;;;0.10;0.10;;;;;;;10.39;68.87;99288.64;103658;1350;137988;-82
2021/11/15 07:45:12;;;;;;;0.20;0.20;;;;;;;10.43;68.70;99293.39;103653;1357;137563;-82
2021/11/15 07:47:37;;;;;;;0.10;0.10;;;;;;;10.48;68.51;99296.58;103470;1355;138706;-82
2021/11/15 07:50:04;;;;;;;0.10;0.10;;;;;;;10.53;68.28;99297.27;103617;1357;138033;-83
2021/11/15 07:52:31;;;;;;;0.10;0.10;;;;;;;10.59;68.30;99299.09;103670;1357;138639;-83
2021/11/15 07:54:57;;;;;;;0.10;0.10;;;;;;;10.66;68.24;99302.58;103679;1357;138503;-82
2021/11/15 07:57:23;;;;;;;0.10;0.10;;;;;;;10.76;68.29;99302.02;103743;1357;22568;-82
2021/11/15 07:59:49;;;;;;;0.10;0.10;;;;;;;10.89;68.17;99306.23;103610;1357;138204;-84
2021/11/15 08:02:54;;;;;;;0.10;0.10;;;;;;;11.01;67.88;99308.99;103568;1357;137995;-87
2021/11/15 08:06:01;;;;;;;0.20;0.20;;;;;;;11.16;67.51;99309.83;103714;1350;137696;-87
2021/11/15 08:08:35;;;;;;;0.10;0.10;;;;;;;11.28;66.64;99312.15;103794;1350;137758;-87
2021/11/15 08:11:03;;;;;;;0.10;0.10;;;;;;;11.35;66.15;99319.34;103680;1357;137735;-85
2021/11/15 08:13:28;;;;;;;0.20;0.20;;;;;;;11.38;65.82;99318.80;103329;1357;138310;-83
2021/11/15 08:15:54;;;;;;;0.20;0.20;;;;;;;11.39;65.79;99321.16;103650;1358;138519;-84
2021/11/15 08:18:19;;;;;;;0.20;0.20;;;;;;;11.42;65.50;99321.45;103649;1357;138479;-85
2021/11/15 08:20:46;;;;;;;0.30;0.30;;;;;;;11.49;65.26;99321.78;103565;1357;137792;-83
2021/11/15 08:23:15;;;;;;;0.20;0.20;;;;;;;11.54;65.12;99322.18;103595;1358;138435;-84
2021/11/15 08:26:16;;;;;;;0.10;0.10;;;;;;;11.57;64.94;99317.56;103536;1358;138167;-83
2021/11/15 08:28:42;;;;;;;0.20;0.20;;;;;;;11.61;64.58;99323.39;103665;1353;138180;-82
2021/11/15 08:31:09;;;;;;;0.20;0.20;;;;;;;11.65;64.54;99323.74;103289;1358;137883;-85
2021/11/15 08:33:35;;;;;;;0.20;0.20;;;;;;;11.70;64.37;99322.39;103499;1358;23305;-84
2021/11/15 08:36:03;;;;;;;0.20;0.20;;;;;;;11.73;63.93;99322.61;103411;1358;137626;-83
2021/11/15 08:38:46;;;;;;;0.20;0.20;;;;;;;11.76;64.14;99327.43;103445;1358;137967;-83
2021/11/15 08:41:15;;;;;;;0.10;0.10;;;;;;;11.78;63.98;99334.79;103529;1358;137760;-84
2021/11/15 08:43:43;;;;;;;0.20;0.20;;;;;;;11.78;63.96;99332.95;103512;1358;137887;-85
2021/11/15 08:46:09;;;;;;;0.10;0.10;;;;;;;11.78;63.77;99334.73;103605;1358;137846;-84
2021/11/15 08:48:36;;;;;;;0.20;0.20;;;;;;;11.73;63.52;99330.98;103486;1359;138057;-84
2021/11/15 08:51:05;;;;;;;0.10;0.10;;;;;;;11.70;63.60;99334.48;103682;1357;138014;-83
2021/11/15 08:53:31;;;;;;;0.20;0.20;;;;;;;11.69;63.64;99339.73;103611;1357;138400;-83
2021/11/15 08:55:57;;;;;;;0.10;0.10;;;;;;;11.68;63.93;99335.27;103582;1357;139014;-83
2021/11/15 08:58:23;;;;;;;0.10;0.10;;;;;;;11.69;64.08;99337.08;103759;1357;138619;-83
2021/11/15 09:00:48;;;;;;;0.20;0.20;;;;;;;11.72;64.18;99336.55;103481;1355;138594;-84
2021/11/15 09:03:16;;;;;;;0.20;0.20;;;;;;;11.75;64.21;99341.30;103659;1358;22446;-82
2021/11/15 09:05:41;;;;;;;0.20;0.20;;;;;;;11.78;64.00;99344.05;103711;1357;137620;-82
2021/11/15 09:08:07;;;;;;;0.10;0.10;;;;;;;11.82;63.66;99344.08;103660;1358;138143;-83
2021/11/15 09:10:33;;;;;;;0.10;0.10;;;;;;;11.85;63.51;99347.38;103101;1357;138232;-83
2021/11/15 09:12:58;;;;;;;0.10;0.10;;;;;;;11.77;63.32;99350.34;103598;1357;137951;-83
2021/11/15 09:15:24;;;;;;;0.20;0.20;;;;;;;11.74;63.35;99352.70;103689;1353;23287;-83
2021/11/15 09:17:50;;;;;;;0.10;0.10;;;;;;;11.72;63.40;99352.52;103655;1357;138092;-83
2021/11/15 09:20:16;;;;;;;0.10;0.10;;;;;;;11.69;63.26;99351.70;103541;1357;138101;-83
2021/11/15 09:22:42;;;;;;;0.20;0.20;;;;;;;11.63;63.05;99354.92;103706;1357;138557;-83
2021/11/15 09:25:09;;;;;;;0.20;0.20;;;;;;;11.58;63.27;99352.23;103629;1357;138153;-83
2021/11/15 09:27:35;;;;;;;0.10;0.10;;;;;;;11.54;63.18;99354.16;103766;1357;22325;-82
2021/11/15 09:30:03;;;;;;;0.10;0.10;;;;;;;11.52;63.16;99350.34;103614;1357;138589;-82
2021/11/15 09:32:29;;;;;;;0.10;0.10;;;;;;;11.53;63.30;99348.44;103710;1357;138284;-82
2021/11/15 09:34:54;;;;;;;0.10;0.10;;;;;;;11.53;63.31;99348.70;103330;1358;138142;-83
2021/11/15 09:37:20;;;;;;;0.20;0.20;;;;;;;11.55;63.33;99341.66;103717;1357;138419;-82
2021/11/15 09:39:48;;;;;;;0.20;0.20;;;;;;;11.58;63.22;99338.80;103767;1357;23118;-83
2021/11/15 09:42:15;;;;;;;0.20;0.20;;;;;;;11.58;63.20;99341.34;103670;1357;138015;-83
2021/11/15 09:44:43;;;;;;;0.10;0.10;;;;;;;11.59;63.06;99333.67;103671;1357;137704;-83
2021/11/15 09:47:09;;;;;;;0.20;0.20;;;;;;;11.60;63.23;99333.13;103644;1357;138042;-84
2021/11/15 09:49:36;;;;;;;0.10;0.10;;;;;;;11.62;63.24;99334.27;103556;1357;138055;-84
2021/11/15 09:52:02;;;;;;;0.10;0.10;;;;;;;11.62;63.12;99336.33;103656;1350;137969;-83
2021/11/15 09:54:28;;;;;;;0.10;0.10;;;;;;;11.64;63.48;99334.56;103650;1358;138655;-86
2021/11/15 09:56:54;;;;;;;0.10;0.10;;;;;;;11.70;63.60;99331.39;103653;1357;139076;-83
2021/11/15 09:59:21;;;;;;;0.10;0.10;;;;;;;11.79;63.89;99334.45;103807;1357;138060;-85
2021/11/15 10:01:50;;;;;;;0.20;0.20;;;;;;;11.86;63.64;99333.73;103534;1358;137871;-84
2021/11/15 10:04:18;;;;;;;0.20;0.20;;;;;;;11.96;63.51;99331.79;103673;1358;137861;-84
2021/11/15 10:06:46;;;;;;;0.10;0.10;;;;;;;12.01;63.13;99330.94;103503;1357;137891;-85
2021/11/15 10:09:12;;;;;;;0.20;0.20;;;;;;;12.01;62.95;99328.41;103557;1357;22357;-84
2021/11/15 10:11:48;;;;;;;0.10;0.10;;;;;;;12.02;62.85;99329.20;103668;1357;137732;-84
2021/11/15 10:14:15;;;;;;;0.20;0.20;;;;;;;12.05;62.87;99326.08;103102;1357;137941;-83
2021/11/15 10:16:49;;;;;;;0.10;0.10;;;;;;;12.11;62.88;99328.80;102852;1357;138551;-84
2021/11/15 10:19:15;;;;;;;0.20;0.20;;;;;;;12.15;62.38;99328.20;103555;1357;138065;-84
2021/11/15 10:21:48;;;;;;;0.20;0.20;;;;;;;12.14;62.39;99328.73;103926;1357;22464;-85
2021/11/15 10:24:20;;;;;;;0.20;0.20;;;;;;;12.15;62.31;99325.92;103696;1357;138057;-82
2021/11/15 10:26:58;;;;;;;0.20;0.20;;;;;;;12.16;62.48;99323.30;103728;1358;137628;-83
2021/11/15 10:29:27;;;;;;;0.10;0.10;;;;;;;12.19;62.26;99319.43;103266;1360;553266;-84
2021/11/15 10:32:03;;;;;;;0.20;0.20;;;;;;;12.23;62.27;99319.67;103579;1357;138836;-82
2021/11/15 10:34:34;;;;;;;0.20;0.20;;;;;;;12.29;62.15;99322.48;103638;1357;138703;-82
2021/11/15 10:37:02;;;;;;;0.30;0.30;;;;;;;12.33;61.95;99318.63;103690;1357;137884;-82
2021/11/15 10:39:38;;;;;;;0.20;0.20;;;;;;;12.33;61.80;99316.25;103756;1357;22472;-83
2021/11/15 10:42:19;;;;;;;0.20;0.20;;;;;;;12.34;61.54;99318.52;103591;1357;137800;-83
2021/11/15 10:45:00;;;;;;;0.20;0.20;;;;;;;12.36;61.47;99312.15;103629;1357;138671;-83
2021/11/15 10:47:40;;;;;;;0.30;0.30;;;;;;;12.34;61.41;99313.59;103613;1357;138832;-82
2021/11/15 10:50:11;;;;;;;0.20;0.20;;;;;;;12.33;61.24;99313.89;103345;1357;139732;-82
2021/11/15 10:52:39;;;;;;;0.10;0.10;;;;;;;12.30;61.20;99312.42;103796;1354;138547;-84
2021/11/15 10:55:07;;;;;;;0.10;0.10;;;;;;;12.28;61.34;99308.67;103517;1357;138769;-86
2021/11/15 10:57:34;;;;;;;0.30;0.30;;;;;;;12.27;61.64;99307.57;103564;1357;23166;-86
2021/11/15 11:00:06;;;;;;;0.10;0.10;;;;;;;12.29;61.77;99306.60;103710;1357;137689;-84
2021/11/15 11:02:37;;;;;;;0.10;0.10;;;;;;;12.32;61.82;99306.83;103692;1357;138523;-82
2021/11/15 11:05:18;;;;;;;0.20;0.20;;;;;;;12.33;61.93;99305.63;103555;1357;138173;-83
2021/11/15 11:07:47;;;;;;;0.10;0.10;;;;;;;12.32;61.67;99306.67;103366;1357;137908;-83
2021/11/15 11:10:17;;;;;;;0.20;0.20;;;;;;;12.32;61.70;99308.29;103649;1357;138056;-84
2021/11/15 11:13:04;;;;;;;0.20;0.20;;;;;;;12.31;61.60;99308.79;103617;1353;137926;-83
2021/11/15 11:15:33;;;;;;;0.10;0.10;;;;;;;12.31;61.49;99306.80;103795;1357;22380;-83
2021/11/15 11:18:46;;;;;;;0.10;0.10;;;;;;;12.33;61.52;99309.20;103551;1357;137729;-84
2021/11/15 11:26:34;;;;;;;0.10;0.10;;;;;;;12.31;60.86;99313.17;103476;1354;137662;-86
2021/11/15 11:29:12;;;;;;;0.10;0.10;;;;;;;12.30;61.04;99309.29;103003;1357;137753;-86
2021/11/15 11:31:42;;;;;;;0.10;0.10;;;;;;;12.30;60.92;99309.98;103669;1357;138063;-85